Time;durP1;ratioP1;P1;durP2;ratioP2;P2;SDS_P1;SDS_P2;PMS_P1;PMS_P2;Temp;Humidity;BMP_temperature;BMP_pressure;BME280_temperature;BME280_humidity;BME280_pressure;Samples;Min_cycle;Max_cycle;Signal;HPM_P1;HPM_P2
2023/12/05 00:02:07;;;;;;;151.10;60.63;;;;;;;;;;5012233;28;20052;-77
2023/12/05 00:04:34;;;;;;;143.00;59.78;;;;;;;;;;5030002;28;20084;-77
2023/12/05 00:07:00;;;;;;;143.15;59.47;;;;;;;;;;5012082;28;20060;-77
2023/12/05 00:09:26;;;;;;;152.95;61.30;;;;;;;;;;5011281;28;20517;-77
2023/12/05 00:11:52;;;;;;;149.55;59.97;;;;;;;;;;5029096;28;20329;-78
2023/12/05 00:14:18;;;;;;;141.55;60.60;;;;;;;;;;5011890;28;20095;-76
2023/12/05 00:16:44;;;;;;;141.02;58.55;;;;;;;;;;5029767;28;20516;-76
2023/12/05 00:19:10;;;;;;;141.70;58.33;;;;;;;;;;5029787;28;20100;-78
2023/12/05 00:21:37;;;;;;;145.40;58.40;;;;;;;;;;5028563;28;20551;-77
2023/12/05 00:24:03;;;;;;;140.23;56.85;;;;;;;;;;5028357;28;20513;-79
2023/12/05 00:26:29;;;;;;;140.60;60.10;;;;;;;;;;5012160;28;20022;-76
2023/12/05 00:28:55;;;;;;;129.32;55.33;;;;;;;;;;5028631;28;20052;-76
2023/12/05 00:31:21;;;;;;;141.50;58.40;;;;;;;;;;5028395;28;20120;-77
2023/12/05 00:33:48;;;;;;;142.57;57.15;;;;;;;;;;5011762;28;20092;-76
2023/12/05 00:36:15;;;;;;;145.07;56.83;;;;;;;;;;5029281;28;20302;-76
2023/12/05 00:38:41;;;;;;;136.45;55.55;;;;;;;;;;5028851;28;20143;-76
2023/12/05 00:41:07;;;;;;;144.57;59.80;;;;;;;;;;5029227;28;20050;-75
2023/12/05 00:43:34;;;;;;;141.73;58.95;;;;;;;;;;5028550;28;20121;-76
2023/12/05 00:46:00;;;;;;;143.75;56.55;;;;;;;;;;5026086;28;20157;-76
2023/12/05 00:48:26;;;;;;;141.63;57.15;;;;;;;;;;5028817;28;20048;-77
2023/12/05 00:50:53;;;;;;;142.63;57.80;;;;;;;;;;5029151;28;20056;-76
2023/12/05 00:53:19;;;;;;;139.98;58.35;;;;;;;;;;5011136;28;20029;-76
2023/12/05 00:55:45;;;;;;;131.80;54.97;;;;;;;;;;5025168;28;20066;-77
2023/12/05 00:58:11;;;;;;;140.32;54.97;;;;;;;;;;5011578;28;20036;-77
2023/12/05 01:00:37;;;;;;;137.43;56.67;;;;;;;;;;5029510;28;20041;-76
2023/12/05 01:03:04;;;;;;;133.23;55.72;;;;;;;;;;5028939;28;20037;-77
2023/12/05 01:05:30;;;;;;;137.32;56.33;;;;;;;;;;5030291;28;20065;-77
2023/12/05 01:07:56;;;;;;;142.27;57.75;;;;;;;;;;5029043;28;20486;-74
2023/12/05 01:10:22;;;;;;;133.93;55.08;;;;;;;;;;5028649;28;20033;-76
2023/12/05 01:12:48;;;;;;;134.10;56.28;;;;;;;;;;5012149;28;20033;-75
2023/12/05 01:15:14;;;;;;;131.25;53.95;;;;;;;;;;5011815;28;20025;-76
2023/12/05 01:17:41;;;;;;;132.35;55.47;;;;;;;;;;5028602;28;21317;-76
2023/12/05 01:20:09;;;;;;;133.30;54.85;;;;;;;;;;5025310;28;20029;-77
2023/12/05 01:22:35;;;;;;;135.77;57.00;;;;;;;;;;5026412;28;20040;-76
2023/12/05 01:25:01;;;;;;;138.65;56.00;;;;;;;;;;5029694;28;20032;-78
2023/12/05 01:27:27;;;;;;;129.88;56.22;;;;;;;;;;5028667;28;20049;-76
2023/12/05 01:29:54;;;;;;;133.25;54.35;;;;;;;;;;5028516;28;20026;-77
2023/12/05 01:32:20;;;;;;;127.38;51.33;;;;;;;;;;5010589;28;20537;-76
2023/12/05 01:34:46;;;;;;;134.70;54.63;;;;;;;;;;5020686;28;20050;-76
2023/12/05 01:37:13;;;;;;;134.75;55.60;;;;;;;;;;5005401;28;20029;-76
2023/12/05 01:39:39;;;;;;;135.13;53.28;;;;;;;;;;5003662;28;20033;-76
2023/12/05 01:42:05;;;;;;;133.25;52.78;;;;;;;;;;5006886;28;20022;-79
2023/12/05 01:44:31;;;;;;;134.80;54.95;;;;;;;;;;5008401;28;20048;-77
2023/12/05 01:46:58;;;;;;;133.05;53.67;;;;;;;;;;5006150;28;20061;-76
2023/12/05 01:49:24;;;;;;;132.73;52.85;;;;;;;;;;5022785;28;20037;-76
2023/12/05 01:51:52;;;;;;;124.28;50.28;;;;;;;;;;5005798;28;20121;-77
2023/12/05 01:54:18;;;;;;;134.15;53.42;;;;;;;;;;5005526;28;20048;-77
2023/12/05 01:56:45;;;;;;;128.70;52.88;;;;;;;;;;4989516;28;20038;-77
2023/12/05 01:59:11;;;;;;;128.30;53.00;;;;;;;;;;5007442;28;20133;-77
2023/12/05 02:01:37;;;;;;;137.85;55.53;;;;;;;;;;5008296;28;20060;-77
2023/12/05 02:04:05;;;;;;;138.35;54.08;;;;;;;;;;5022594;28;20030;-76
2023/12/05 02:06:31;;;;;;;139.30;53.40;;;;;;;;;;5007274;28;20025;-76
2023/12/05 02:08:58;;;;;;;144.35;54.95;;;;;;;;;;5008237;28;20092;-77
2023/12/05 02:11:24;;;;;;;141.00;55.50;;;;;;;;;;5020818;28;20037;-77
2023/12/05 02:13:52;;;;;;;137.02;53.83;;;;;;;;;;5006871;28;20030;-78
2023/12/05 02:16:30;;;;;;;138.18;52.88;;;;;;;;;;5023072;28;20030;-76
2023/12/05 02:19:00;;;;;;;129.80;52.38;;;;;;;;;;5008133;28;20021;-76
2023/12/05 02:21:29;;;;;;;134.32;53.08;;;;;;;;;;5008576;28;20021;-76
2023/12/05 02:24:04;;;;;;;143.27;54.85;;;;;;;;;;5007600;28;20045;-76
2023/12/05 02:26:49;;;;;;;135.38;52.50;;;;;;;;;;5007205;28;20040;-76
2023/12/05 02:29:16;;;;;;;131.13;50.28;;;;;;;;;;5006121;28;20509;-76
2023/12/05 02:31:42;;;;;;;136.40;53.72;;;;;;;;;;5024242;28;20084;-76
2023/12/05 02:34:08;;;;;;;133.63;52.83;;;;;;;;;;5020104;28;20136;-75
2023/12/05 02:36:50;;;;;;;141.43;53.50;;;;;;;;;;5015083;28;20037;-76
2023/12/05 02:39:21;;;;;;;136.88;50.10;;;;;;;;;;5014541;28;20032;-77
2023/12/05 02:41:56;;;;;;;136.80;52.17;;;;;;;;;;5014458;28;20025;-77
2023/12/05 02:44:29;;;;;;;138.65;52.33;;;;;;;;;;5029868;28;20506;-77
2023/12/05 02:46:56;;;;;;;138.38;51.60;;;;;;;;;;5032585;28;20104;-77
2023/12/05 02:49:22;;;;;;;136.90;51.25;;;;;;;;;;5031731;28;20514;-76
2023/12/05 02:51:49;;;;;;;132.23;51.50;;;;;;;;;;5014163;28;20029;-77
2023/12/05 02:54:15;;;;;;;134.27;51.40;;;;;;;;;;5030758;28;20033;-78
2023/12/05 02:56:42;;;;;;;131.05;50.03;;;;;;;;;;5031934;28;20034;-76
2023/12/05 02:59:09;;;;;;;124.45;48.05;;;;;;;;;;5030424;28;20033;-75
2023/12/05 03:01:41;;;;;;;134.15;50.20;;;;;;;;;;5031672;28;20052;-74
2023/12/05 03:04:08;;;;;;;131.27;48.65;;;;;;;;;;5031882;28;20029;-77
2023/12/05 03:06:34;;;;;;;134.70;50.05;;;;;;;;;;5031761;28;20056;-76
2023/12/05 03:09:03;;;;;;;131.90;47.60;;;;;;;;;;5013658;28;20037;-77
2023/12/05 03:11:29;;;;;;;120.47;45.25;;;;;;;;;;5030669;28;20033;-76
2023/12/05 03:13:57;;;;;;;115.80;45.20;;;;;;;;;;5030402;28;20029;-76
2023/12/05 03:16:23;;;;;;;124.82;46.40;;;;;;;;;;5031938;28;20037;-76
2023/12/05 03:18:49;;;;;;;125.72;46.88;;;;;;;;;;5014059;28;20036;-77
2023/12/05 03:21:17;;;;;;;119.97;45.85;;;;;;;;;;5031670;28;20541;-76
2023/12/05 03:23:44;;;;;;;123.80;45.35;;;;;;;;;;5031581;28;20036;-76
2023/12/05 03:26:17;;;;;;;113.57;44.88;;;;;;;;;;5013817;28;20091;-77
2023/12/05 03:28:43;;;;;;;126.43;47.65;;;;;;;;;;5029470;28;20056;-77
2023/12/05 03:31:09;;;;;;;126.25;47.35;;;;;;;;;;5031380;28;20037;-76
2023/12/05 03:33:39;;;;;;;124.78;45.92;;;;;;;;;;5031194;28;20430;-74
2023/12/05 03:36:05;;;;;;;121.30;45.92;;;;;;;;;;5031164;28;20049;-81
2023/12/05 03:38:32;;;;;;;126.97;46.38;;;;;;;;;;5031459;28;20064;-76
2023/12/05 03:40:59;;;;;;;124.72;45.10;;;;;;;;;;5030603;28;20528;-77
2023/12/05 03:43:25;;;;;;;128.90;47.45;;;;;;;;;;5030570;28;20029;-76
2023/12/05 03:45:51;;;;;;;111.60;44.03;;;;;;;;;;5028903;28;20037;-77
2023/12/05 03:48:17;;;;;;;116.07;44.65;;;;;;;;;;5031551;28;20395;-77
2023/12/05 03:50:43;;;;;;;114.15;45.83;;;;;;;;;;5014182;28;20136;-77
2023/12/05 03:53:09;;;;;;;125.60;47.92;;;;;;;;;;5031529;28;20056;-76
2023/12/05 03:55:35;;;;;;;120.18;44.90;;;;;;;;;;5017719;28;20501;-76
2023/12/05 03:58:02;;;;;;;123.10;46.38;;;;;;;;;;5030019;28;20071;-78
2023/12/05 04:00:28;;;;;;;116.85;44.15;;;;;;;;;;4997776;28;20061;-76
2023/12/05 04:02:58;;;;;;;125.07;45.50;;;;;;;;;;5010023;28;20042;-76
2023/12/05 04:05:24;;;;;;;119.10;44.92;;;;;;;;;;5020478;28;20029;-77
2023/12/05 04:07:50;;;;;;;121.07;46.00;;;;;;;;;;5013900;28;20037;-77
2023/12/05 04:10:16;;;;;;;118.85;43.38;;;;;;;;;;5031422;28;20029;-77
2023/12/05 04:12:42;;;;;;;126.05;45.88;;;;;;;;;;5029564;28;20029;-76
2023/12/05 04:15:09;;;;;;;114.35;44.95;;;;;;;;;;5026624;28;20378;-77
2023/12/05 04:17:35;;;;;;;121.78;46.50;;;;;;;;;;5029720;28;20037;-77
2023/12/05 04:20:02;;;;;;;120.07;45.08;;;;;;;;;;5013034;28;20033;-77
2023/12/05 04:22:29;;;;;;;116.28;44.90;;;;;;;;;;5029743;28;20041;-76
2023/12/05 04:24:55;;;;;;;116.43;44.38;;;;;;;;;;5012315;28;20033;-77
2023/12/05 04:27:21;;;;;;;118.47;44.20;;;;;;;;;;5029455;28;20053;-77
2023/12/05 04:29:47;;;;;;;110.28;41.58;;;;;;;;;;5030870;28;20045;-77
2023/12/05 04:32:14;;;;;;;110.05;44.50;;;;;;;;;;5030564;28;20041;-77
2023/12/05 04:34:41;;;;;;;117.43;43.38;;;;;;;;;;5029397;28;20144;-78
2023/12/05 04:37:08;;;;;;;120.72;44.75;;;;;;;;;;5030308;28;20041;-77
2023/12/05 04:39:34;;;;;;;120.22;43.45;;;;;;;;;;5030299;28;20037;-77
2023/12/05 04:42:01;;;;;;;110.03;40.92;;;;;;;;;;5011950;28;20025;-77
2023/12/05 04:44:30;;;;;;;117.25;42.85;;;;;;;;;;5029905;28;20025;-76
2023/12/05 04:47:03;;;;;;;103.68;39.67;;;;;;;;;;5029864;28;20083;-76
2023/12/05 04:49:30;;;;;;;106.82;40.45;;;;;;;;;;5029977;28;20442;-76
2023/12/05 04:51:56;;;;;;;105.22;40.53;;;;;;;;;;5030055;28;20033;-77
2023/12/05 04:54:23;;;;;;;111.80;39.97;;;;;;;;;;5012030;28;20033;-76
2023/12/05 04:56:49;;;;;;;110.50;41.42;;;;;;;;;;5029295;28;20029;-75
2023/12/05 04:59:15;;;;;;;121.07;45.85;;;;;;;;;;5029945;28;20030;-77
2023/12/05 05:01:41;;;;;;;110.35;43.00;;;;;;;;;;5030044;28;20069;-76
2023/12/05 05:04:07;;;;;;;110.10;41.10;;;;;;;;;;5029167;28;20033;-77
2023/12/05 05:06:33;;;;;;;106.57;40.15;;;;;;;;;;5008401;28;20049;-77
2023/12/05 05:08:59;;;;;;;115.85;41.83;;;;;;;;;;5010815;28;20372;-76
2023/12/05 05:11:26;;;;;;;105.20;39.75;;;;;;;;;;5029338;28;20083;-76
2023/12/05 05:13:52;;;;;;;124.47;50.15;;;;;;;;;;5030024;28;20168;-76
2023/12/05 05:16:18;;;;;;;111.32;44.45;;;;;;;;;;5029040;28;20092;-76
2023/12/05 05:18:44;;;;;;;112.57;43.15;;;;;;;;;;5029086;28;20045;-76
2023/12/05 05:21:11;;;;;;;113.07;42.05;;;;;;;;;;5011644;28;20032;-76
2023/12/05 05:23:38;;;;;;;112.88;40.70;;;;;;;;;;5028947;28;20029;-76
2023/12/05 05:26:04;;;;;;;110.63;40.78;;;;;;;;;;5028466;28;20036;-77
2023/12/05 05:28:31;;;;;;;109.53;40.78;;;;;;;;;;5028043;28;20406;-76
2023/12/05 05:30:58;;;;;;;113.25;42.30;;;;;;;;;;5005855;28;20116;-76
2023/12/05 05:33:25;;;;;;;115.95;41.45;;;;;;;;;;4992841;28;20075;-76
2023/12/05 05:35:51;;;;;;;111.95;41.85;;;;;;;;;;5028421;28;20034;-77
2023/12/05 05:38:17;;;;;;;113.55;42.92;;;;;;;;;;5003457;28;20029;-76
2023/12/05 05:40:44;;;;;;;113.53;43.30;;;;;;;;;;5025544;28;20091;-76
2023/12/05 05:43:10;;;;;;;110.70;40.78;;;;;;;;;;5028195;28;20029;-77
2023/12/05 05:45:36;;;;;;;115.35;43.53;;;;;;;;;;5025971;28;20033;-76
2023/12/05 05:48:02;;;;;;;121.30;41.65;;;;;;;;;;5027561;28;20094;-76
2023/12/05 05:50:28;;;;;;;115.05;42.53;;;;;;;;;;5010979;28;20042;-77
2023/12/05 05:52:55;;;;;;;120.18;44.20;;;;;;;;;;5012060;28;20026;-76
2023/12/05 05:55:24;;;;;;;122.95;45.60;;;;;;;;;;5027330;28;20093;-76
2023/12/05 05:57:51;;;;;;;119.55;43.15;;;;;;;;;;5029374;28;20030;-75
2023/12/05 06:00:18;;;;;;;108.22;40.88;;;;;;;;;;5028038;28;20030;-74
2023/12/05 06:02:45;;;;;;;121.55;44.67;;;;;;;;;;5028577;28;20033;-77
2023/12/05 06:05:11;;;;;;;115.78;45.88;;;;;;;;;;5025703;28;20037;-75
2023/12/05 06:07:37;;;;;;;113.20;40.92;;;;;;;;;;5024100;28;20494;-75
2023/12/05 06:10:04;;;;;;;121.97;43.47;;;;;;;;;;5031150;28;20120;-76
2023/12/05 06:12:32;;;;;;;124.30;43.55;;;;;;;;;;5031335;28;20018;-76
2023/12/05 06:14:58;;;;;;;120.40;43.53;;;;;;;;;;5028725;28;20041;-76
2023/12/05 06:17:24;;;;;;;119.45;43.40;;;;;;;;;;5032454;28;20306;-77
2023/12/05 06:19:50;;;;;;;120.00;43.50;;;;;;;;;;5031556;28;20486;-77
2023/12/05 06:22:16;;;;;;;123.88;43.05;;;;;;;;;;5030359;28;20044;-77
2023/12/05 06:24:42;;;;;;;117.95;40.88;;;;;;;;;;5029932;28;20037;-77
2023/12/05 06:27:08;;;;;;;117.78;41.08;;;;;;;;;;5030174;28;20430;-77
2023/12/05 06:29:35;;;;;;;113.97;43.00;;;;;;;;;;5029922;28;20049;-75
2023/12/05 06:32:01;;;;;;;121.20;41.72;;;;;;;;;;5031398;28;20060;-75
2023/12/05 06:34:28;;;;;;;127.93;42.28;;;;;;;;;;5031704;28;20034;-76
2023/12/05 06:36:54;;;;;;;130.10;43.08;;;;;;;;;;5014683;28;20068;-76
2023/12/05 06:39:20;;;;;;;123.60;44.67;;;;;;;;;;5031989;28;20037;-76
2023/12/05 06:41:46;;;;;;;129.15;44.15;;;;;;;;;;5014884;28;20030;-76
2023/12/05 06:44:12;;;;;;;131.50;46.25;;;;;;;;;;5013714;28;20539;-77
2023/12/05 06:46:38;;;;;;;130.90;44.88;;;;;;;;;;5013626;28;20029;-76
2023/12/05 06:49:05;;;;;;;137.50;47.30;;;;;;;;;;5032037;28;20021;-77
2023/12/05 06:51:31;;;;;;;141.35;47.67;;;;;;;;;;5032193;28;20041;-76
2023/12/05 06:53:57;;;;;;;137.05;46.78;;;;;;;;;;5014390;28;20608;-75
2023/12/05 06:56:24;;;;;;;146.55;48.83;;;;;;;;;;5031614;28;20033;-76
2023/12/05 06:58:50;;;;;;;151.85;48.63;;;;;;;;;;5032387;28;20044;-76
2023/12/05 07:01:18;;;;;;;158.27;49.42;;;;;;;;;;5014300;28;20026;-76
2023/12/05 07:03:44;;;;;;;158.80;50.55;;;;;;;;;;5013480;28;20534;-76
2023/12/05 07:06:10;;;;;;;141.25;49.83;;;;;;;;;;5030849;28;20045;-76
2023/12/05 07:08:36;;;;;;;164.88;50.83;;;;;;;;;;5030882;28;20034;-76
2023/12/05 07:11:03;;;;;;;161.70;52.67;;;;;;;;;;5031812;28;20038;-75
2023/12/05 07:13:29;;;;;;;166.25;54.45;;;;;;;;;;5030908;28;20037;-75
2023/12/05 07:15:56;;;;;;;152.85;51.78;;;;;;;;;;5031314;28;20021;-75
2023/12/05 07:18:23;;;;;;;157.88;50.38;;;;;;;;;;5031027;28;20045;-75
2023/12/05 07:20:49;;;;;;;152.70;51.55;;;;;;;;;;5030752;28;20087;-75
2023/12/05 07:23:15;;;;;;;150.07;50.28;;;;;;;;;;5013884;28;20053;-77
2023/12/05 07:25:41;;;;;;;157.00;53.03;;;;;;;;;;4997601;28;20045;-76
2023/12/05 07:28:07;;;;;;;169.82;52.92;;;;;;;;;;5030616;28;20324;-76
2023/12/05 07:30:33;;;;;;;160.45;53.80;;;;;;;;;;5013337;28;20061;-77
2023/12/05 07:33:00;;;;;;;168.38;58.08;;;;;;;;;;5030667;28;20048;-76
2023/12/05 07:35:26;;;;;;;180.82;64.10;;;;;;;;;;5030400;28;20434;-76
2023/12/05 07:37:52;;;;;;;161.25;56.15;;;;;;;;;;5029273;28;20111;-76
2023/12/05 07:40:18;;;;;;;164.70;57.50;;;;;;;;;;5031867;28;20029;-76
2023/12/05 07:42:44;;;;;;;163.45;54.50;;;;;;;;;;5031271;28;20068;-76
2023/12/05 07:45:10;;;;;;;165.95;56.10;;;;;;;;;;5031807;28;20096;-77
2023/12/05 07:47:37;;;;;;;170.07;58.42;;;;;;;;;;5013911;28;20064;-75
2023/12/05 07:50:03;;;;;;;177.15;63.28;;;;;;;;;;5031530;28;20086;-77
2023/12/05 07:52:29;;;;;;;163.38;56.17;;;;;;;;;;5030906;28;20021;-77
2023/12/05 07:54:56;;;;;;;151.60;54.97;;;;;;;;;;5031955;28;20048;-77
2023/12/05 07:57:22;;;;;;;146.95;51.45;;;;;;;;;;5031306;28;20129;-77
2023/12/05 07:59:49;;;;;;;139.77;49.70;;;;;;;;;;5030544;28;20037;-78
2023/12/05 08:02:15;;;;;;;150.30;52.53;;;;;;;;;;5029545;28;20040;-76
2023/12/05 08:04:42;;;;;;;140.35;50.35;;;;;;;;;;5013680;28;20040;-76
2023/12/05 08:07:08;;;;;;;150.02;51.60;;;;;;;;;;5021325;28;20121;-76
2023/12/05 08:09:34;;;;;;;141.43;49.78;;;;;;;;;;5030371;28;20033;-75
2023/12/05 08:12:00;;;;;;;145.20;49.70;;;;;;;;;;5030398;28;20026;-76
2023/12/05 08:14:26;;;;;;;138.65;48.35;;;;;;;;;;5028378;28;20036;-74
2023/12/05 08:16:53;;;;;;;140.75;49.10;;;;;;;;;;5009561;28;20034;-78
2023/12/05 08:19:19;;;;;;;139.23;49.88;;;;;;;;;;5022343;28;20056;-77
2023/12/05 08:21:45;;;;;;;129.57;47.13;;;;;;;;;;5028194;28;20095;-76
2023/12/05 08:24:11;;;;;;;141.13;50.08;;;;;;;;;;5028872;28;20033;-77
2023/12/05 08:26:37;;;;;;;146.75;48.90;;;;;;;;;;5021226;28;20061;-76
2023/12/05 08:29:04;;;;;;;140.93;51.85;;;;;;;;;;5010444;28;20037;-77
2023/12/05 08:31:30;;;;;;;135.10;49.60;;;;;;;;;;5022886;28;20486;-75
2023/12/05 08:33:56;;;;;;;145.25;49.05;;;;;;;;;;5012353;28;20021;-75
2023/12/05 08:36:23;;;;;;;140.07;48.88;;;;;;;;;;5028956;28;20060;-75
2023/12/05 08:38:49;;;;;;;129.35;48.35;;;;;;;;;;5028811;28;20037;-76
2023/12/05 08:41:19;;;;;;;122.78;47.50;;;;;;;;;;5030459;28;20068;-76
2023/12/05 08:43:48;;;;;;;122.20;45.78;;;;;;;;;;5030185;28;20052;-76
2023/12/05 08:46:15;;;;;;;128.15;44.95;;;;;;;;;;5029570;28;20029;-76
2023/12/05 08:48:41;;;;;;;113.82;43.63;;;;;;;;;;5016060;28;20046;-77
2023/12/05 08:51:07;;;;;;;121.10;42.80;;;;;;;;;;5030145;28;20109;-78
2023/12/05 08:53:34;;;;;;;122.25;46.10;;;;;;;;;;5012648;28;20060;-77
2023/12/05 08:56:00;;;;;;;126.32;48.83;;;;;;;;;;5029201;28;20034;-78
2023/12/05 08:58:26;;;;;;;119.35;45.38;;;;;;;;;;5026575;28;20041;-76
2023/12/05 09:00:54;;;;;;;117.95;43.30;;;;;;;;;;5023709;28;20064;-78
2023/12/05 09:03:20;;;;;;;112.50;43.25;;;;;;;;;;5030714;28;20032;-77
2023/12/05 09:05:46;;;;;;;122.75;45.65;;;;;;;;;;5031089;28;20410;-77
2023/12/05 09:08:12;;;;;;;114.28;44.40;;;;;;;;;;5031002;28;20067;-76
2023/12/05 09:10:39;;;;;;;115.22;43.72;;;;;;;;;;5012756;28;20037;-77
2023/12/05 09:13:05;;;;;;;119.68;46.13;;;;;;;;;;5028845;28;20029;-77
2023/12/05 09:15:31;;;;;;;113.20;44.17;;;;;;;;;;5030384;28;20034;-77
2023/12/05 09:17:57;;;;;;;116.65;45.38;;;;;;;;;;5030354;28;20183;-78
2023/12/05 09:20:23;;;;;;;121.05;45.05;;;;;;;;;;5030703;28;20060;-76
2023/12/05 09:22:49;;;;;;;204.50;86.32;;;;;;;;;;5030345;28;20034;-76
2023/12/05 09:25:17;;;;;;;151.38;52.55;;;;;;;;;;5029515;28;20064;-77
2023/12/05 09:27:43;;;;;;;141.05;51.38;;;;;;;;;;5028700;28;20045;-77
2023/12/05 09:30:09;;;;;;;135.10;50.78;;;;;;;;;;5028481;28;20087;-76
2023/12/05 09:32:35;;;;;;;123.07;46.55;;;;;;;;;;5029754;28;20063;-76
2023/12/05 09:35:02;;;;;;;134.57;48.22;;;;;;;;;;5009175;28;20100;-77
2023/12/05 09:37:28;;;;;;;122.88;46.80;;;;;;;;;;5010072;28;20025;-76
2023/12/05 09:39:54;;;;;;;130.70;45.88;;;;;;;;;;5009632;28;20030;-76
2023/12/05 09:42:23;;;;;;;120.03;45.85;;;;;;;;;;5008732;28;20061;-77
2023/12/05 09:44:49;;;;;;;125.28;47.92;;;;;;;;;;5009034;28;20051;-76
2023/12/05 09:47:19;;;;;;;125.82;47.75;;;;;;;;;;5005476;28;20084;-76
2023/12/05 09:49:46;;;;;;;121.30;46.50;;;;;;;;;;5009592;28;20030;-75
2023/12/05 09:52:12;;;;;;;124.30;45.88;;;;;;;;;;5009424;28;20065;-76
2023/12/05 09:54:43;;;;;;;127.63;48.70;;;;;;;;;;5008089;28;20491;-77
2023/12/05 09:57:12;;;;;;;119.57;46.63;;;;;;;;;;5009411;28;20080;-76
2023/12/05 09:59:38;;;;;;;133.60;49.78;;;;;;;;;;5007989;28;20076;-76
2023/12/05 10:02:04;;;;;;;119.95;48.30;;;;;;;;;;5009325;28;20114;-76
2023/12/05 10:04:33;;;;;;;125.43;47.28;;;;;;;;;;5008138;28;20033;-76
2023/12/05 10:06:59;;;;;;;128.25;48.25;;;;;;;;;;5009154;28;20053;-76
2023/12/05 10:09:30;;;;;;;130.13;47.95;;;;;;;;;;5008800;28;20443;-77
2023/12/05 10:11:56;;;;;;;127.88;49.35;;;;;;;;;;5009460;28;20033;-77
2023/12/05 10:14:23;;;;;;;124.78;49.05;;;;;;;;;;5009382;28;20022;-76
2023/12/05 10:16:49;;;;;;;136.60;49.72;;;;;;;;;;5008014;28;20049;-76
2023/12/05 10:19:18;;;;;;;122.35;48.90;;;;;;;;;;5016963;28;20453;-76
2023/12/05 10:21:44;;;;;;;129.90;49.03;;;;;;;;;;5003079;28;20030;-75
2023/12/05 10:24:10;;;;;;;123.57;48.30;;;;;;;;;;4991607;28;20049;-75
2023/12/05 10:26:49;;;;;;;125.38;48.90;;;;;;;;;;5022299;28;20451;-75
2023/12/05 10:29:16;;;;;;;128.10;48.30;;;;;;;;;;4998704;28;20034;-76
2023/12/05 10:31:42;;;;;;;116.60;48.33;;;;;;;;;;5008944;28;20042;-76
2023/12/05 10:34:08;;;;;;;130.00;51.00;;;;;;;;;;5007516;28;20026;-76
2023/12/05 10:36:36;;;;;;;122.32;46.97;;;;;;;;;;5028566;28;20037;-76
2023/12/05 10:39:03;;;;;;;133.10;49.63;;;;;;;;;;5026587;28;20041;-77
2023/12/05 10:41:30;;;;;;;126.63;48.58;;;;;;;;;;5026097;28;20052;-76
2023/12/05 10:43:56;;;;;;;127.18;50.00;;;;;;;;;;5018077;28;20125;-76
2023/12/05 10:46:25;;;;;;;130.65;50.08;;;;;;;;;;5029279;28;20486;-78
2023/12/05 10:48:51;;;;;;;131.93;49.03;;;;;;;;;;5026970;28;20344;-76
2023/12/05 10:51:18;;;;;;;132.38;47.85;;;;;;;;;;5029097;28;20390;-76
2023/12/05 10:53:44;;;;;;;125.10;46.92;;;;;;;;;;5029596;28;20029;-77
2023/12/05 10:56:11;;;;;;;135.90;49.75;;;;;;;;;;5031602;28;20450;-76
2023/12/05 10:58:38;;;;;;;128.05;47.60;;;;;;;;;;5029892;28;20040;-76
2023/12/05 11:01:05;;;;;;;135.98;49.60;;;;;;;;;;5016873;28;20033;-85
2023/12/05 11:03:31;;;;;;;138.48;49.63;;;;;;;;;;5011533;28;20029;-76
2023/12/05 11:05:57;;;;;;;126.05;48.10;;;;;;;;;;5026427;28;20036;-76
2023/12/05 11:08:24;;;;;;;135.35;46.60;;;;;;;;;;5014545;28;20132;-76
2023/12/05 11:10:51;;;;;;;133.88;48.92;;;;;;;;;;5032123;28;20045;-77
2023/12/05 11:13:17;;;;;;;119.95;46.15;;;;;;;;;;5014166;28;20054;-78
2023/12/05 11:15:44;;;;;;;132.45;48.80;;;;;;;;;;5016033;28;20065;-76
2023/12/05 11:18:25;;;;;;;135.70;49.35;;;;;;;;;;5034510;28;20033;-77
2023/12/05 11:20:56;;;;;;;131.15;49.38;;;;;;;;;;5033640;28;20420;-77
2023/12/05 11:23:22;;;;;;;;;;;;;;;;;;5032626;28;20029;-75
2023/12/05 11:25:54;;;;;;;117.93;44.88;;;;;;;;;;5032111;28;19909;-77
2023/12/05 11:28:23;;;;;;;134.10;50.88;;;;;;;;;;5031008;28;20025;-76
2023/12/05 11:30:51;;;;;;;120.78;46.40;;;;;;;;;;5030713;28;20049;-76
2023/12/05 11:33:23;;;;;;;118.30;47.42;;;;;;;;;;5031590;28;20104;-76
2023/12/05 11:36:11;;;;;;;121.63;48.95;;;;;;;;;;5031523;28;20486;-76
2023/12/05 11:38:38;;;;;;;117.15;47.60;;;;;;;;;;5030972;28;20038;-76
2023/12/05 11:41:24;;;;;;;114.10;46.90;;;;;;;;;;5031976;28;20046;-76
2023/12/05 11:44:09;;;;;;;117.40;47.72;;;;;;;;;;5031758;28;20087;-76
2023/12/05 11:46:35;;;;;;;114.47;46.63;;;;;;;;;;5000783;28;20029;-77
2023/12/05 11:49:04;;;;;;;122.38;47.38;;;;;;;;;;5018452;28;20124;-77
2023/12/05 11:51:31;;;;;;;115.00;45.47;;;;;;;;;;5023350;28;20069;-77
2023/12/05 11:54:00;;;;;;;120.70;48.22;;;;;;;;;;5011336;28;20041;-76
2023/12/05 11:56:28;;;;;;;124.47;47.42;;;;;;;;;;5013219;28;20029;-76
2023/12/05 11:59:14;;;;;;;129.77;49.28;;;;;;;;;;5025219;28;20084;-77
2023/12/05 12:01:41;;;;;;;125.97;49.90;;;;;;;;;;5011314;28;20038;-76
2023/12/05 12:04:21;;;;;;;115.28;47.63;;;;;;;;;;5022069;28;20483;-77
2023/12/05 12:06:47;;;;;;;128.05;48.47;;;;;;;;;;5027493;28;20030;-76
2023/12/05 12:09:14;;;;;;;127.40;48.45;;;;;;;;;;5030949;28;20116;-75
2023/12/05 12:11:40;;;;;;;126.70;48.17;;;;;;;;;;5030239;28;20036;-77
2023/12/05 12:14:16;;;;;;;115.53;46.65;;;;;;;;;;5031437;28;20032;-77
2023/12/05 12:16:43;;;;;;;113.15;47.03;;;;;;;;;;5011201;28;20069;-76
2023/12/05 12:19:11;;;;;;;108.60;43.40;;;;;;;;;;5024095;28;20030;-76
2023/12/05 12:21:38;;;;;;;113.10;42.95;;;;;;;;;;5012974;28;20033;-76
2023/12/05 12:24:06;;;;;;;116.38;46.40;;;;;;;;;;5031025;28;20069;-76
2023/12/05 12:26:32;;;;;;;113.70;45.45;;;;;;;;;;5031200;28;20044;-76
2023/12/05 12:29:05;;;;;;;107.70;44.33;;;;;;;;;;5030238;28;20475;-76
2023/12/05 12:31:31;;;;;;;105.60;43.25;;;;;;;;;;5030971;28;20048;-76
2023/12/05 12:33:58;;;;;;;108.28;42.28;;;;;;;;;;5030174;28;20116;-76
2023/12/05 12:36:24;;;;;;;102.10;44.40;;;;;;;;;;5030597;28;20049;-75
2023/12/05 12:38:50;;;;;;;100.47;41.70;;;;;;;;;;5012401;28;20029;-77
2023/12/05 12:41:16;;;;;;;97.63;43.83;;;;;;;;;;5012800;28;20095;-77
2023/12/05 12:43:42;;;;;;;100.88;42.42;;;;;;;;;;5030100;28;20033;-77
2023/12/05 12:46:09;;;;;;;98.05;43.35;;;;;;;;;;5028325;28;20041;-87
2023/12/05 12:48:36;;;;;;;94.97;42.10;;;;;;;;;;5013086;28;20034;-77
2023/12/05 12:51:02;;;;;;;101.68;42.72;;;;;;;;;;4992943;28;20030;-77
2023/12/05 12:53:30;;;;;;;88.43;40.47;;;;;;;;;;5007942;28;20056;-79
2023/12/05 12:55:56;;;;;;;100.53;42.88;;;;;;;;;;5030055;28;20025;-77
2023/12/05 12:58:32;;;;;;;95.75;41.80;;;;;;;;;;5029813;28;20033;-78
2023/12/05 13:00:58;;;;;;;96.18;42.08;;;;;;;;;;5011988;28;20108;-78
2023/12/05 13:03:28;;;;;;;94.43;42.15;;;;;;;;;;5028997;28;20391;-78
2023/12/05 13:05:54;;;;;;;98.18;43.22;;;;;;;;;;5026597;28;20034;-76
2023/12/05 13:08:20;;;;;;;92.55;42.63;;;;;;;;;;5027251;28;20072;-78
2023/12/05 13:10:47;;;;;;;98.40;43.55;;;;;;;;;;5029764;28;20482;-77
2023/12/05 13:13:13;;;;;;;89.18;42.03;;;;;;;;;;5011659;28;20033;-78
2023/12/05 13:15:43;;;;;;;89.63;40.65;;;;;;;;;;5028992;28;20071;-77
2023/12/05 13:18:11;;;;;;;92.35;42.35;;;;;;;;;;5027929;28;20171;-81
2023/12/05 13:20:51;;;;;;;99.90;43.97;;;;;;;;;;5027899;28;20123;-76
2023/12/05 13:23:17;;;;;;;99.10;41.42;;;;;;;;;;5029036;28;20363;-76
2023/12/05 13:25:44;;;;;;;101.45;43.33;;;;;;;;;;5008035;28;20463;-75
2023/12/05 13:28:10;;;;;;;105.20;44.10;;;;;;;;;;5008948;28;20026;-76
2023/12/05 13:30:36;;;;;;;108.30;44.60;;;;;;;;;;5026944;28;20040;-76
2023/12/05 13:33:03;;;;;;;110.22;46.38;;;;;;;;;;5027326;28;20472;-76
2023/12/05 13:35:29;;;;;;;105.32;43.58;;;;;;;;;;5008355;28;20037;-76
2023/12/05 13:37:56;;;;;;;107.30;45.03;;;;;;;;;;5028658;28;20064;-77
2023/12/05 13:40:22;;;;;;;101.43;42.95;;;;;;;;;;5010980;28;20029;-77
2023/12/05 13:42:48;;;;;;;99.30;43.25;;;;;;;;;;5029526;28;20116;-76
2023/12/05 13:45:14;;;;;;;106.78;44.40;;;;;;;;;;5007624;28;20041;-76
2023/12/05 13:47:40;;;;;;;104.57;44.10;;;;;;;;;;5007659;28;20040;-76
2023/12/05 13:50:07;;;;;;;103.50;43.92;;;;;;;;;;5025685;28;20061;-75
2023/12/05 13:52:33;;;;;;;100.20;42.58;;;;;;;;;;5023228;28;20038;-76
2023/12/05 13:54:59;;;;;;;99.57;41.58;;;;;;;;;;5019439;28;20041;-76
2023/12/05 13:57:26;;;;;;;105.72;43.30;;;;;;;;;;4992163;28;20399;-76
2023/12/05 13:59:52;;;;;;;97.03;42.03;;;;;;;;;;5005582;28;20091;-76
2023/12/05 14:02:18;;;;;;;108.82;43.08;;;;;;;;;;5027511;28;20029;-76
2023/12/05 14:04:44;;;;;;;108.60;43.72;;;;;;;;;;5027713;28;20029;-77
2023/12/05 14:07:11;;;;;;;110.60;42.75;;;;;;;;;;5027723;28;20546;-77